sensor_id;sensor_type;location;lat;lon;timestamp;temperature;humidity
15574;DHT22;7888;46.748;8.102;2024-02-23T00:01:06;11.10;57.10
15574;DHT22;7888;46.748;8.102;2024-02-23T00:03:32;11.10;57.00
15574;DHT22;7888;46.748;8.102;2024-02-23T00:06:00;11.10;56.80
15574;DHT22;7888;46.748;8.102;2024-02-23T00:08:25;11.10;56.60
15574;DHT22;7888;46.748;8.102;2024-02-23T00:10:51;11.00;56.30
15574;DHT22;7888;46.748;8.102;2024-02-23T00:13:17;11.00;56.30
15574;DHT22;7888;46.748;8.102;2024-02-23T00:15:43;10.90;56.30
15574;DHT22;7888;46.748;8.102;2024-02-23T00:18:09;10.80;56.20
15574;DHT22;7888;46.748;8.102;2024-02-23T00:20:35;10.80;56.20
15574;DHT22;7888;46.748;8.102;2024-02-23T00:23:02;10.70;56.70
15574;DHT22;7888;46.748;8.102;2024-02-23T00:25:28;10.60;56.00
15574;DHT22;7888;46.748;8.102;2024-02-23T00:27:54;10.60;56.20
15574;DHT22;7888;46.748;8.102;2024-02-23T00:30:19;10.50;56.30
15574;DHT22;7888;46.748;8.102;2024-02-23T00:32:45;10.50;56.40
15574;DHT22;7888;46.748;8.102;2024-02-23T00:35:11;10.40;56.60
15574;DHT22;7888;46.748;8.102;2024-02-23T00:37:37;10.40;56.80
15574;DHT22;7888;46.748;8.102;2024-02-23T00:40:06;10.40;57.50
15574;DHT22;7888;46.748;8.102;2024-02-23T00:42:32;10.40;56.90
15574;DHT22;7888;46.748;8.102;2024-02-23T00:44:58;10.40;57.10
15574;DHT22;7888;46.748;8.102;2024-02-23T00:47:23;10.40;57.10
15574;DHT22;7888;46.748;8.102;2024-02-23T00:49:49;10.40;57.10
15574;DHT22;7888;46.748;8.102;2024-02-23T00:52:15;10.50;57.20
15574;DHT22;7888;46.748;8.102;2024-02-23T00:54:41;10.50;57.00
15574;DHT22;7888;46.748;8.102;2024-02-23T00:57:07;10.40;56.90
15574;DHT22;7888;46.748;8.102;2024-02-23T00:59:33;10.40;56.90
15574;DHT22;7888;46.748;8.102;2024-02-23T01:01:59;10.40;56.80
15574;DHT22;7888;46.748;8.102;2024-02-23T01:04:25;10.40;56.80
15574;DHT22;7888;46.748;8.102;2024-02-23T01:06:51;10.40;56.70
15574;DHT22;7888;46.748;8.102;2024-02-23T01:09:17;10.40;56.70
15574;DHT22;7888;46.748;8.102;2024-02-23T01:11:49;10.40;56.80
15574;DHT22;7888;46.748;8.102;2024-02-23T01:14:15;10.30;56.70
15574;DHT22;7888;46.748;8.102;2024-02-23T01:16:41;10.30;56.80
15574;DHT22;7888;46.748;8.102;2024-02-23T01:19:06;10.30;57.50
15574;DHT22;7888;46.748;8.102;2024-02-23T01:21:32;10.30;56.90
15574;DHT22;7888;46.748;8.102;2024-02-23T01:23:58;10.30;56.90
15574;DHT22;7888;46.748;8.102;2024-02-23T01:26:26;10.30;56.90
15574;DHT22;7888;46.748;8.102;2024-02-23T01:28:52;10.30;56.70
15574;DHT22;7888;46.748;8.102;2024-02-23T01:31:18;10.20;56.40
15574;DHT22;7888;46.748;8.102;2024-02-23T01:33:44;10.20;56.40
15574;DHT22;7888;46.748;8.102;2024-02-23T01:36:10;10.20;56.50
15574;DHT22;7888;46.748;8.102;2024-02-23T01:38:36;10.10;56.60
15574;DHT22;7888;46.748;8.102;2024-02-23T01:41:02;10.10;56.70
15574;DHT22;7888;46.748;8.102;2024-02-23T01:43:27;10.10;56.80
15574;DHT22;7888;46.748;8.102;2024-02-23T01:45:54;10.00;57.00
15574;DHT22;7888;46.748;8.102;2024-02-23T01:48:20;10.00;57.10
15574;DHT22;7888;46.748;8.102;2024-02-23T01:50:46;10.10;57.20
15574;DHT22;7888;46.748;8.102;2024-02-23T01:53:13;10.00;57.20
15574;DHT22;7888;46.748;8.102;2024-02-23T01:55:42;10.00;57.30
15574;DHT22;7888;46.748;8.102;2024-02-23T01:58:10;10.00;57.50
15574;DHT22;7888;46.748;8.102;2024-02-23T02:00:36;10.10;57.30
15574;DHT22;7888;46.748;8.102;2024-02-23T02:03:03;10.10;57.30
15574;DHT22;7888;46.748;8.102;2024-02-23T02:05:29;10.10;57.10
15574;DHT22;7888;46.748;8.102;2024-02-23T02:07:55;10.10;57.00
15574;DHT22;7888;46.748;8.102;2024-02-23T02:10:24;10.10;57.10
15574;DHT22;7888;46.748;8.102;2024-02-23T02:12:52;10.10;57.00
15574;DHT22;7888;46.748;8.102;2024-02-23T02:15:18;10.10;57.00
15574;DHT22;7888;46.748;8.102;2024-02-23T02:17:44;10.00;57.00
15574;DHT22;7888;46.748;8.102;2024-02-23T02:20:12;10.00;56.80
15574;DHT22;7888;46.748;8.102;2024-02-23T02:22:39;10.10;57.00
15574;DHT22;7888;46.748;8.102;2024-02-23T02:25:06;10.10;57.00
15574;DHT22;7888;46.748;8.102;2024-02-23T02:27:32;10.10;57.00
15574;DHT22;7888;46.748;8.102;2024-02-23T02:29:58;10.10;57.10
15574;DHT22;7888;46.748;8.102;2024-02-23T02:32:24;10.10;57.10
15574;DHT22;7888;46.748;8.102;2024-02-23T02:34:50;10.10;57.10
15574;DHT22;7888;46.748;8.102;2024-02-23T02:37:15;10.10;57.10
15574;DHT22;7888;46.748;8.102;2024-02-23T02:39:41;10.10;57.30
15574;DHT22;7888;46.748;8.102;2024-02-23T02:42:07;10.10;57.10
15574;DHT22;7888;46.748;8.102;2024-02-23T02:44:33;10.10;57.20
15574;DHT22;7888;46.748;8.102;2024-02-23T02:46:59;10.10;57.20
15574;DHT22;7888;46.748;8.102;2024-02-23T02:49:24;10.10;57.20
15574;DHT22;7888;46.748;8.102;2024-02-23T02:51:50;10.10;57.10
15574;DHT22;7888;46.748;8.102;2024-02-23T02:54:16;10.10;57.00
15574;DHT22;7888;46.748;8.102;2024-02-23T02:56:43;10.10;56.90
15574;DHT22;7888;46.748;8.102;2024-02-23T02:59:09;10.10;56.80
15574;DHT22;7888;46.748;8.102;2024-02-23T03:01:38;10.10;56.80
15574;DHT22;7888;46.748;8.102;2024-02-23T03:04:04;10.10;57.30
15574;DHT22;7888;46.748;8.102;2024-02-23T03:06:31;10.10;56.80
15574;DHT22;7888;46.748;8.102;2024-02-23T03:08:56;10.10;57.40
15574;DHT22;7888;46.748;8.102;2024-02-23T03:11:22;10.10;56.90
15574;DHT22;7888;46.748;8.102;2024-02-23T03:13:48;10.10;56.80
15574;DHT22;7888;46.748;8.102;2024-02-23T03:16:17;10.10;56.70
15574;DHT22;7888;46.748;8.102;2024-02-23T03:18:44;10.10;56.70
15574;DHT22;7888;46.748;8.102;2024-02-23T03:21:11;10.10;56.60
15574;DHT22;7888;46.748;8.102;2024-02-23T03:23:36;10.10;56.50
15574;DHT22;7888;46.748;8.102;2024-02-23T03:26:03;10.10;56.50
15574;DHT22;7888;46.748;8.102;2024-02-23T03:28:29;10.10;56.50
15574;DHT22;7888;46.748;8.102;2024-02-23T03:30:55;10.10;56.50
15574;DHT22;7888;46.748;8.102;2024-02-23T03:33:20;10.10;56.50
15574;DHT22;7888;46.748;8.102;2024-02-23T03:35:46;10.00;56.50
15574;DHT22;7888;46.748;8.102;2024-02-23T03:38:12;10.00;56.50
15574;DHT22;7888;46.748;8.102;2024-02-23T03:40:38;10.00;56.40
15574;DHT22;7888;46.748;8.102;2024-02-23T03:43:04;10.00;56.40
15574;DHT22;7888;46.748;8.102;2024-02-23T03:45:31;10.00;56.50
15574;DHT22;7888;46.748;8.102;2024-02-23T03:47:57;9.90;56.50
15574;DHT22;7888;46.748;8.102;2024-02-23T03:50:22;9.90;56.70
15574;DHT22;7888;46.748;8.102;2024-02-23T03:52:48;9.90;56.80
15574;DHT22;7888;46.748;8.102;2024-02-23T03:55:14;9.90;56.80
15574;DHT22;7888;46.748;8.102;2024-02-23T03:57:40;9.90;56.90
15574;DHT22;7888;46.748;8.102;2024-02-23T04:00:06;9.90;56.90
15574;DHT22;7888;46.748;8.102;2024-02-23T04:02:33;9.80;56.70
15574;DHT22;7888;46.748;8.102;2024-02-23T04:05:00;9.80;56.70
15574;DHT22;7888;46.748;8.102;2024-02-23T04:07:26;9.90;56.80
15574;DHT22;7888;46.748;8.102;2024-02-23T04:09:51;9.80;56.70
15574;DHT22;7888;46.748;8.102;2024-02-23T04:12:20;9.80;56.60
15574;DHT22;7888;46.748;8.102;2024-02-23T04:14:47;9.80;57.00
15574;DHT22;7888;46.748;8.102;2024-02-23T04:17:13;9.80;56.20
15574;DHT22;7888;46.748;8.102;2024-02-23T04:19:43;9.80;56.20
15574;DHT22;7888;46.748;8.102;2024-02-23T04:22:09;9.80;55.90
15574;DHT22;7888;46.748;8.102;2024-02-23T04:24:39;9.80;55.90
15574;DHT22;7888;46.748;8.102;2024-02-23T04:27:06;9.80;55.80
15574;DHT22;7888;46.748;8.102;2024-02-23T04:29:34;9.70;55.80
15574;DHT22;7888;46.748;8.102;2024-02-23T04:32:00;9.80;55.80
15574;DHT22;7888;46.748;8.102;2024-02-23T04:34:27;9.70;55.80
15574;DHT22;7888;46.748;8.102;2024-02-23T04:36:53;9.70;55.80
15574;DHT22;7888;46.748;8.102;2024-02-23T04:39:20;9.70;56.00
15574;DHT22;7888;46.748;8.102;2024-02-23T04:41:46;9.70;56.10
15574;DHT22;7888;46.748;8.102;2024-02-23T04:44:12;9.70;56.30
15574;DHT22;7888;46.748;8.102;2024-02-23T04:46:37;9.60;56.30
15574;DHT22;7888;46.748;8.102;2024-02-23T04:49:03;9.70;56.30
15574;DHT22;7888;46.748;8.102;2024-02-23T04:51:29;9.60;56.10
15574;DHT22;7888;46.748;8.102;2024-02-23T04:53:55;9.70;56.10
15574;DHT22;7888;46.748;8.102;2024-02-23T04:56:21;9.70;56.00
15574;DHT22;7888;46.748;8.102;2024-02-23T04:58:47;9.70;55.90
15574;DHT22;7888;46.748;8.102;2024-02-23T05:01:12;9.70;56.00
15574;DHT22;7888;46.748;8.102;2024-02-23T05:03:38;9.70;56.00
15574;DHT22;7888;46.748;8.102;2024-02-23T05:06:05;9.70;56.20
15574;DHT22;7888;46.748;8.102;2024-02-23T05:08:30;9.70;56.30
15574;DHT22;7888;46.748;8.102;2024-02-23T05:10:57;9.70;56.20
15574;DHT22;7888;46.748;8.102;2024-02-23T05:13:23;9.70;56.20
15574;DHT22;7888;46.748;8.102;2024-02-23T05:15:49;9.70;56.10
15574;DHT22;7888;46.748;8.102;2024-02-23T05:18:15;9.70;56.10
15574;DHT22;7888;46.748;8.102;2024-02-23T05:20:41;9.70;56.00
15574;DHT22;7888;46.748;8.102;2024-02-23T05:23:07;9.70;56.00
15574;DHT22;7888;46.748;8.102;2024-02-23T05:25:34;9.70;56.00
15574;DHT22;7888;46.748;8.102;2024-02-23T05:28:00;9.70;56.00
15574;DHT22;7888;46.748;8.102;2024-02-23T05:30:26;9.70;56.00
15574;DHT22;7888;46.748;8.102;2024-02-23T05:32:57;9.70;56.00
15574;DHT22;7888;46.748;8.102;2024-02-23T05:35:27;9.70;56.00
15574;DHT22;7888;46.748;8.102;2024-02-23T05:37:53;9.70;56.10
15574;DHT22;7888;46.748;8.102;2024-02-23T05:40:18;9.70;56.00
15574;DHT22;7888;46.748;8.102;2024-02-23T05:42:44;9.70;56.10
15574;DHT22;7888;46.748;8.102;2024-02-23T05:45:10;9.70;56.10
15574;DHT22;7888;46.748;8.102;2024-02-23T05:47:37;9.70;56.10
15574;DHT22;7888;46.748;8.102;2024-02-23T05:50:04;9.60;56.10
15574;DHT22;7888;46.748;8.102;2024-02-23T05:52:34;9.60;56.10
15574;DHT22;7888;46.748;8.102;2024-02-23T05:55:00;9.60;56.30
15574;DHT22;7888;46.748;8.102;2024-02-23T05:57:27;9.60;56.20
15574;DHT22;7888;46.748;8.102;2024-02-23T05:59:53;9.50;56.20
15574;DHT22;7888;46.748;8.102;2024-02-23T06:02:20;9.50;56.20
15574;DHT22;7888;46.748;8.102;2024-02-23T06:04:47;9.50;56.20
15574;DHT22;7888;46.748;8.102;2024-02-23T06:07:13;9.50;56.20
15574;DHT22;7888;46.748;8.102;2024-02-23T06:09:43;9.40;56.30
15574;DHT22;7888;46.748;8.102;2024-02-23T06:12:09;9.40;56.30
15574;DHT22;7888;46.748;8.102;2024-02-23T06:14:35;9.40;56.40
15574;DHT22;7888;46.748;8.102;2024-02-23T06:17:02;9.40;56.50
15574;DHT22;7888;46.748;8.102;2024-02-23T06:19:28;9.40;56.50
15574;DHT22;7888;46.748;8.102;2024-02-23T06:21:54;9.40;56.50
15574;DHT22;7888;46.748;8.102;2024-02-23T06:24:20;9.40;56.50
15574;DHT22;7888;46.748;8.102;2024-02-23T06:26:46;9.40;56.50
15574;DHT22;7888;46.748;8.102;2024-02-23T06:29:14;9.30;56.50
15574;DHT22;7888;46.748;8.102;2024-02-23T06:31:40;9.30;56.50
15574;DHT22;7888;46.748;8.102;2024-02-23T06:34:07;9.30;56.50
15574;DHT22;7888;46.748;8.102;2024-02-23T06:36:33;9.30;56.50
15574;DHT22;7888;46.748;8.102;2024-02-23T06:38:59;9.30;56.50
15574;DHT22;7888;46.748;8.102;2024-02-23T06:41:25;9.30;56.60
15574;DHT22;7888;46.748;8.102;2024-02-23T06:43:51;9.30;56.90
15574;DHT22;7888;46.748;8.102;2024-02-23T06:46:19;9.30;57.10
15574;DHT22;7888;46.748;8.102;2024-02-23T06:48:48;9.30;57.20
15574;DHT22;7888;46.748;8.102;2024-02-23T06:51:13;9.40;57.50
15574;DHT22;7888;46.748;8.102;2024-02-23T06:53:41;9.40;56.90
15574;DHT22;7888;46.748;8.102;2024-02-23T06:56:07;9.40;56.90
15574;DHT22;7888;46.748;8.102;2024-02-23T06:58:32;9.40;56.90
15574;DHT22;7888;46.748;8.102;2024-02-23T07:00:58;9.40;56.90
15574;DHT22;7888;46.748;8.102;2024-02-23T07:03:25;9.40;57.00
15574;DHT22;7888;46.748;8.102;2024-02-23T07:05:51;9.50;57.10
15574;DHT22;7888;46.748;8.102;2024-02-23T07:08:17;9.50;57.10
15574;DHT22;7888;46.748;8.102;2024-02-23T07:10:43;9.50;57.10
15574;DHT22;7888;46.748;8.102;2024-02-23T07:13:10;9.50;57.70
15574;DHT22;7888;46.748;8.102;2024-02-23T07:15:35;9.50;57.10
15574;DHT22;7888;46.748;8.102;2024-02-23T07:18:02;9.50;57.10
15574;DHT22;7888;46.748;8.102;2024-02-23T07:20:28;9.50;57.10
15574;DHT22;7888;46.748;8.102;2024-02-23T07:22:53;9.50;57.20
15574;DHT22;7888;46.748;8.102;2024-02-23T07:25:20;9.50;57.20
15574;DHT22;7888;46.748;8.102;2024-02-23T07:27:47;9.50;57.30
15574;DHT22;7888;46.748;8.102;2024-02-23T07:30:16;9.50;57.20
15574;DHT22;7888;46.748;8.102;2024-02-23T07:32:43;9.50;57.10
15574;DHT22;7888;46.748;8.102;2024-02-23T07:35:10;9.60;57.20
15574;DHT22;7888;46.748;8.102;2024-02-23T07:37:39;9.60;57.10
15574;DHT22;7888;46.748;8.102;2024-02-23T07:40:05;9.60;57.00
15574;DHT22;7888;46.748;8.102;2024-02-23T07:42:32;9.70;56.90
15574;DHT22;7888;46.748;8.102;2024-02-23T07:44:58;9.70;56.80
15574;DHT22;7888;46.748;8.102;2024-02-23T07:47:24;9.70;56.80
15574;DHT22;7888;46.748;8.102;2024-02-23T07:49:52;9.70;56.70
15574;DHT22;7888;46.748;8.102;2024-02-23T07:52:19;9.70;56.70
15574;DHT22;7888;46.748;8.102;2024-02-23T07:54:44;9.70;56.60
15574;DHT22;7888;46.748;8.102;2024-02-23T07:57:10;9.70;56.50
15574;DHT22;7888;46.748;8.102;2024-02-23T07:59:36;9.70;56.50
15574;DHT22;7888;46.748;8.102;2024-02-23T08:02:02;9.70;56.50
15574;DHT22;7888;46.748;8.102;2024-02-23T08:04:28;9.70;56.50
15574;DHT22;7888;46.748;8.102;2024-02-23T08:06:53;9.70;56.50
15574;DHT22;7888;46.748;8.102;2024-02-23T08:09:19;9.80;56.50
15574;DHT22;7888;46.748;8.102;2024-02-23T08:11:47;9.80;56.50
15574;DHT22;7888;46.748;8.102;2024-02-23T08:14:13;9.80;56.60
15574;DHT22;7888;46.748;8.102;2024-02-23T08:16:38;9.80;56.70
15574;DHT22;7888;46.748;8.102;2024-02-23T08:19:04;9.80;56.70
15574;DHT22;7888;46.748;8.102;2024-02-23T08:21:30;9.90;56.80
15574;DHT22;7888;46.748;8.102;2024-02-23T08:23:55;9.90;56.70
15574;DHT22;7888;46.748;8.102;2024-02-23T08:26:21;9.90;56.60
15574;DHT22;7888;46.748;8.102;2024-02-23T08:28:47;9.90;56.40
15574;DHT22;7888;46.748;8.102;2024-02-23T08:31:13;9.90;56.40
15574;DHT22;7888;46.748;8.102;2024-02-23T08:33:38;10.00;56.40
15574;DHT22;7888;46.748;8.102;2024-02-23T08:36:04;10.00;56.40
15574;DHT22;7888;46.748;8.102;2024-02-23T08:38:32;10.00;56.30
15574;DHT22;7888;46.748;8.102;2024-02-23T08:40:58;10.00;56.30
15574;DHT22;7888;46.748;8.102;2024-02-23T08:43:24;10.00;56.30
15574;DHT22;7888;46.748;8.102;2024-02-23T08:45:50;10.00;56.20
15574;DHT22;7888;46.748;8.102;2024-02-23T08:48:16;10.00;56.20
15574;DHT22;7888;46.748;8.102;2024-02-23T08:50:44;10.10;56.20
15574;DHT22;7888;46.748;8.102;2024-02-23T08:53:10;10.10;56.00
15574;DHT22;7888;46.748;8.102;2024-02-23T08:55:35;10.10;55.90
15574;DHT22;7888;46.748;8.102;2024-02-23T08:58:01;10.10;56.00
15574;DHT22;7888;46.748;8.102;2024-02-23T09:00:27;10.10;56.00
15574;DHT22;7888;46.748;8.102;2024-02-23T09:02:53;10.10;56.00
15574;DHT22;7888;46.748;8.102;2024-02-23T09:05:19;10.20;56.10
15574;DHT22;7888;46.748;8.102;2024-02-23T09:07:46;10.20;56.00
15574;DHT22;7888;46.748;8.102;2024-02-23T09:10:12;10.20;55.80
15574;DHT22;7888;46.748;8.102;2024-02-23T09:12:37;10.20;56.30
15574;DHT22;7888;46.748;8.102;2024-02-23T09:15:04;10.20;55.60
15574;DHT22;7888;46.748;8.102;2024-02-23T09:17:31;10.20;55.50
15574;DHT22;7888;46.748;8.102;2024-02-23T09:19:57;10.20;56.20
15574;DHT22;7888;46.748;8.102;2024-02-23T09:22:22;10.20;55.80
15574;DHT22;7888;46.748;8.102;2024-02-23T09:24:49;10.20;55.80
15574;DHT22;7888;46.748;8.102;2024-02-23T09:27:14;10.20;55.90
15574;DHT22;7888;46.748;8.102;2024-02-23T09:29:41;10.20;55.80
15574;DHT22;7888;46.748;8.102;2024-02-23T09:32:07;10.20;55.70
15574;DHT22;7888;46.748;8.102;2024-02-23T09:34:33;10.20;55.60
15574;DHT22;7888;46.748;8.102;2024-02-23T09:36:59;10.20;55.70
15574;DHT22;7888;46.748;8.102;2024-02-23T09:39:25;10.20;55.90
15574;DHT22;7888;46.748;8.102;2024-02-23T09:41:55;10.30;56.30
15574;DHT22;7888;46.748;8.102;2024-02-23T09:44:22;10.40;56.50
15574;DHT22;7888;46.748;8.102;2024-02-23T09:46:48;10.50;56.90
15574;DHT22;7888;46.748;8.102;2024-02-23T09:49:17;10.60;56.90
15574;DHT22;7888;46.748;8.102;2024-02-23T09:51:43;10.70;56.20
15574;DHT22;7888;46.748;8.102;2024-02-23T09:54:10;10.80;56.00
15574;DHT22;7888;46.748;8.102;2024-02-23T09:56:36;10.90;55.80
15574;DHT22;7888;46.748;8.102;2024-02-23T09:59:03;10.90;55.70
15574;DHT22;7888;46.748;8.102;2024-02-23T10:01:31;11.00;55.70
15574;DHT22;7888;46.748;8.102;2024-02-23T10:03:59;11.10;55.80
15574;DHT22;7888;46.748;8.102;2024-02-23T10:06:27;11.10;55.80
15574;DHT22;7888;46.748;8.102;2024-02-23T10:08:53;11.20;55.60
15574;DHT22;7888;46.748;8.102;2024-02-23T10:11:23;11.30;55.50
15574;DHT22;7888;46.748;8.102;2024-02-23T10:13:50;11.30;55.30
15574;DHT22;7888;46.748;8.102;2024-02-23T10:16:17;11.40;55.40
15574;DHT22;7888;46.748;8.102;2024-02-23T10:18:49;11.40;55.20
15574;DHT22;7888;46.748;8.102;2024-02-23T10:21:18;11.50;55.10
15574;DHT22;7888;46.748;8.102;2024-02-23T10:23:47;11.50;54.60
15574;DHT22;7888;46.748;8.102;2024-02-23T10:26:15;11.60;54.40
15574;DHT22;7888;46.748;8.102;2024-02-23T10:28:45;11.60;54.90
15574;DHT22;7888;46.748;8.102;2024-02-23T10:31:12;11.70;54.90
15574;DHT22;7888;46.748;8.102;2024-02-23T10:33:38;11.80;54.70
15574;DHT22;7888;46.748;8.102;2024-02-23T10:36:05;11.80;54.60
15574;DHT22;7888;46.748;8.102;2024-02-23T10:38:35;12.00;55.10
15574;DHT22;7888;46.748;8.102;2024-02-23T10:41:05;12.10;54.70
15574;DHT22;7888;46.748;8.102;2024-02-23T10:43:44;12.20;54.50
15574;DHT22;7888;46.748;8.102;2024-02-23T10:46:12;12.40;53.90
15574;DHT22;7888;46.748;8.102;2024-02-23T10:48:40;12.50;53.70
15574;DHT22;7888;46.748;8.102;2024-02-23T10:51:07;12.60;53.40
15574;DHT22;7888;46.748;8.102;2024-02-23T10:53:36;12.70;53.00
15574;DHT22;7888;46.748;8.102;2024-02-23T10:56:04;12.80;53.30
15574;DHT22;7888;46.748;8.102;2024-02-23T10:58:32;12.90;53.10
15574;DHT22;7888;46.748;8.102;2024-02-23T11:01:03;13.10;53.30
15574;DHT22;7888;46.748;8.102;2024-02-23T11:03:33;13.20;53.10
15574;DHT22;7888;46.748;8.102;2024-02-23T11:06:02;13.30;52.60
15574;DHT22;7888;46.748;8.102;2024-02-23T11:08:35;13.50;52.60
15574;DHT22;7888;46.748;8.102;2024-02-23T11:11:08;13.60;52.20
15574;DHT22;7888;46.748;8.102;2024-02-23T11:13:39;13.70;51.00
15574;DHT22;7888;46.748;8.102;2024-02-23T11:16:06;13.80;51.00
15574;DHT22;7888;46.748;8.102;2024-02-23T11:18:37;13.90;50.90
15574;DHT22;7888;46.748;8.102;2024-02-23T11:21:05;14.00;51.20
15574;DHT22;7888;46.748;8.102;2024-02-23T11:23:47;14.20;51.10
15574;DHT22;7888;46.748;8.102;2024-02-23T11:26:15;14.40;50.30
15574;DHT22;7888;46.748;8.102;2024-02-23T11:28:48;14.50;51.00
15574;DHT22;7888;46.748;8.102;2024-02-23T11:31:23;14.60;49.80
15574;DHT22;7888;46.748;8.102;2024-02-23T11:33:54;14.70;49.40
15574;DHT22;7888;46.748;8.102;2024-02-23T11:39:00;15.00;49.00
15574;DHT22;7888;46.748;8.102;2024-02-23T11:41:27;15.10;48.50
15574;DHT22;7888;46.748;8.102;2024-02-23T11:43:55;15.20;49.30
15574;DHT22;7888;46.748;8.102;2024-02-23T11:46:21;15.30;49.00
15574;DHT22;7888;46.748;8.102;2024-02-23T11:48:49;15.40;48.90
15574;DHT22;7888;46.748;8.102;2024-02-23T11:51:22;15.50;48.90
15574;DHT22;7888;46.748;8.102;2024-02-23T11:53:49;15.60;49.40
15574;DHT22;7888;46.748;8.102;2024-02-23T11:56:15;15.70;48.40
15574;DHT22;7888;46.748;8.102;2024-02-23T11:58:42;15.70;48.30
15574;DHT22;7888;46.748;8.102;2024-02-23T12:01:08;15.80;48.40
15574;DHT22;7888;46.748;8.102;2024-02-23T12:03:34;15.90;48.60
15574;DHT22;7888;46.748;8.102;2024-02-23T12:06:01;16.00;48.40
15574;DHT22;7888;46.748;8.102;2024-02-23T12:08:30;16.10;48.10
15574;DHT22;7888;46.748;8.102;2024-02-23T12:11:07;16.10;48.40
15574;DHT22;7888;46.748;8.102;2024-02-23T12:13:38;16.20;48.20
15574;DHT22;7888;46.748;8.102;2024-02-23T12:16:04;16.30;47.30
15574;DHT22;7888;46.748;8.102;2024-02-23T12:18:35;16.40;47.90
15574;DHT22;7888;46.748;8.102;2024-02-23T12:21:05;16.50;47.10
15574;DHT22;7888;46.748;8.102;2024-02-23T12:23:43;16.60;47.50
15574;DHT22;7888;46.748;8.102;2024-02-23T12:26:11;16.70;46.00
15574;DHT22;7888;46.748;8.102;2024-02-23T12:28:38;16.80;46.40
15574;DHT22;7888;46.748;8.102;2024-02-23T12:31:05;16.90;46.70
15574;DHT22;7888;46.748;8.102;2024-02-23T12:33:33;16.90;46.20
15574;DHT22;7888;46.748;8.102;2024-02-23T12:36:00;17.00;45.90
15574;DHT22;7888;46.748;8.102;2024-02-23T12:38:27;17.20;46.10
15574;DHT22;7888;46.748;8.102;2024-02-23T12:40:53;17.30;45.70
15574;DHT22;7888;46.748;8.102;2024-02-23T12:43:20;17.40;45.90
15574;DHT22;7888;46.748;8.102;2024-02-23T12:45:53;17.60;45.50
15574;DHT22;7888;46.748;8.102;2024-02-23T12:48:20;17.80;45.30
15574;DHT22;7888;46.748;8.102;2024-02-23T12:50:47;18.00;45.20
15574;DHT22;7888;46.748;8.102;2024-02-23T12:56:04;18.10;42.70
15574;DHT22;7888;46.748;8.102;2024-02-23T12:58:31;18.10;43.80
15574;DHT22;7888;46.748;8.102;2024-02-23T13:00:57;18.10;43.20
15574;DHT22;7888;46.748;8.102;2024-02-23T13:03:27;18.10;43.00
15574;DHT22;7888;46.748;8.102;2024-02-23T13:05:56;18.10;43.10
15574;DHT22;7888;46.748;8.102;2024-02-23T13:08:23;18.10;42.60
15574;DHT22;7888;46.748;8.102;2024-02-23T13:10:51;18.10;42.70
15574;DHT22;7888;46.748;8.102;2024-02-23T13:13:17;18.00;42.60
15574;DHT22;7888;46.748;8.102;2024-02-23T13:15:44;18.10;42.70
15574;DHT22;7888;46.748;8.102;2024-02-23T13:18:10;18.10;42.60
15574;DHT22;7888;46.748;8.102;2024-02-23T13:20:40;18.10;42.70
15574;DHT22;7888;46.748;8.102;2024-02-23T13:23:09;18.20;41.40
15574;DHT22;7888;46.748;8.102;2024-02-23T13:25:37;18.30;42.20
15574;DHT22;7888;46.748;8.102;2024-02-23T13:28:06;18.40;42.30
15574;DHT22;7888;46.748;8.102;2024-02-23T13:30:34;18.40;42.20
15574;DHT22;7888;46.748;8.102;2024-02-23T13:33:01;18.50;41.80
15574;DHT22;7888;46.748;8.102;2024-02-23T13:35:27;18.60;41.20
15574;DHT22;7888;46.748;8.102;2024-02-23T13:37:53;18.50;41.30
15574;DHT22;7888;46.748;8.102;2024-02-23T13:40:20;18.60;41.80
15574;DHT22;7888;46.748;8.102;2024-02-23T13:42:47;18.60;41.30
15574;DHT22;7888;46.748;8.102;2024-02-23T13:45:16;18.60;41.20
15574;DHT22;7888;46.748;8.102;2024-02-23T13:47:43;18.60;41.30
15574;DHT22;7888;46.748;8.102;2024-02-23T13:50:20;18.60;41.20
15574;DHT22;7888;46.748;8.102;2024-02-23T13:52:47;18.60;41.00
15574;DHT22;7888;46.748;8.102;2024-02-23T13:55:13;18.70;41.10
15574;DHT22;7888;46.748;8.102;2024-02-23T13:57:39;18.70;41.00
15574;DHT22;7888;46.748;8.102;2024-02-23T14:00:06;18.70;40.70
15574;DHT22;7888;46.748;8.102;2024-02-23T14:02:37;18.70;40.70
15574;DHT22;7888;46.748;8.102;2024-02-23T14:05:06;18.70;40.60
15574;DHT22;7888;46.748;8.102;2024-02-23T14:07:36;18.80;40.40
15574;DHT22;7888;46.748;8.102;2024-02-23T14:10:02;18.80;40.00
15574;DHT22;7888;46.748;8.102;2024-02-23T14:12:29;18.80;40.10
15574;DHT22;7888;46.748;8.102;2024-02-23T14:14:55;18.80;40.10
15574;DHT22;7888;46.748;8.102;2024-02-23T14:17:21;18.90;40.10
15574;DHT22;7888;46.748;8.102;2024-02-23T14:19:47;19.00;40.00
15574;DHT22;7888;46.748;8.102;2024-02-23T14:22:13;19.00;39.50
15574;DHT22;7888;46.748;8.102;2024-02-23T14:24:38;19.10;39.60
15574;DHT22;7888;46.748;8.102;2024-02-23T14:27:05;19.10;39.20
15574;DHT22;7888;46.748;8.102;2024-02-23T14:29:31;19.20;38.90
15574;DHT22;7888;46.748;8.102;2024-02-23T14:31:58;19.20;38.80
15574;DHT22;7888;46.748;8.102;2024-02-23T14:34:25;19.10;38.60
15574;DHT22;7888;46.748;8.102;2024-02-23T14:36:50;19.10;39.10
15574;DHT22;7888;46.748;8.102;2024-02-23T14:39:16;19.10;38.60
15574;DHT22;7888;46.748;8.102;2024-02-23T14:41:42;19.20;38.60
15574;DHT22;7888;46.748;8.102;2024-02-23T14:44:08;19.20;38.40
15574;DHT22;7888;46.748;8.102;2024-02-23T14:46:34;19.40;39.00
15574;DHT22;7888;46.748;8.102;2024-02-23T14:49:00;19.40;38.00
15574;DHT22;7888;46.748;8.102;2024-02-23T14:51:25;19.60;38.40
15574;DHT22;7888;46.748;8.102;2024-02-23T14:53:51;19.70;38.20
15574;DHT22;7888;46.748;8.102;2024-02-23T14:56:17;19.80;38.00
15574;DHT22;7888;46.748;8.102;2024-02-23T14:58:43;19.90;37.80
15574;DHT22;7888;46.748;8.102;2024-02-23T15:01:08;20.00;37.80
15574;DHT22;7888;46.748;8.102;2024-02-23T15:03:34;20.10;37.80
15574;DHT22;7888;46.748;8.102;2024-02-23T15:06:01;20.30;37.70
15574;DHT22;7888;46.748;8.102;2024-02-23T16:13:28;18.80;35.90
15574;DHT22;7888;46.748;8.102;2024-02-23T16:15:54;18.70;36.00
15574;DHT22;7888;46.748;8.102;2024-02-23T16:18:20;18.60;36.10
15574;DHT22;7888;46.748;8.102;2024-02-23T16:20:45;18.40;36.70
15574;DHT22;7888;46.748;8.102;2024-02-23T16:23:11;18.30;36.10
15574;DHT22;7888;46.748;8.102;2024-02-23T16:25:37;18.20;36.50
15574;DHT22;7888;46.748;8.102;2024-02-23T16:28:03;18.10;36.40
15574;DHT22;7888;46.748;8.102;2024-02-23T16:30:29;18.00;36.40
15574;DHT22;7888;46.748;8.102;2024-02-23T16:32:57;17.80;36.30
15574;DHT22;7888;46.748;8.102;2024-02-23T16:35:23;17.70;36.30
15574;DHT22;7888;46.748;8.102;2024-02-23T16:37:49;17.50;36.40
15574;DHT22;7888;46.748;8.102;2024-02-23T16:40:22;17.20;36.40
15574;DHT22;7888;46.748;8.102;2024-02-23T16:42:54;17.00;36.30
15574;DHT22;7888;46.748;8.102;2024-02-23T16:45:20;16.80;36.90
15574;DHT22;7888;46.748;8.102;2024-02-23T16:47:46;16.70;37.10
15574;DHT22;7888;46.748;8.102;2024-02-23T16:50:12;16.60;37.20
15574;DHT22;7888;46.748;8.102;2024-02-23T16:52:39;16.40;37.50
15574;DHT22;7888;46.748;8.102;2024-02-23T16:55:08;16.30;37.80
15574;DHT22;7888;46.748;8.102;2024-02-23T16:57:34;16.20;37.90